sensor_id;sensor_type;location;lat;lon;timestamp;pressure;altitude;pressure_sealevel;temperature;humidity
57779;BME280;43608;49.486;9.640;2023-07-13T00:00:12;98545.56;;;18.58;67.78
57779;BME280;43608;49.486;9.640;2023-07-13T00:00:45;98539.50;;;18.53;67.82
57779;BME280;43608;49.486;9.640;2023-07-13T00:01:16;98561.53;;;18.61;68.18
57779;BME280;43608;49.486;9.640;2023-07-13T00:01:48;98560.75;;;18.59;68.20
57779;BME280;43608;49.486;9.640;2023-07-13T00:02:19;98544.19;;;18.47;68.36
57779;BME280;43608;49.486;9.640;2023-07-13T00:02:50;98547.78;;;18.46;68.29
57779;BME280;43608;49.486;9.640;2023-07-13T00:03:23;98555.59;;;18.53;68.73
57779;BME280;43608;49.486;9.640;2023-07-13T00:03:55;98555.81;;;18.48;68.26
57779;BME280;43608;49.486;9.640;2023-07-13T00:04:26;98534.78;;;18.36;68.66
57779;BME280;43608;49.486;9.640;2023-07-13T00:04:56;98558.53;;;18.46;68.76
57779;BME280;43608;49.486;9.640;2023-07-13T00:05:27;98561.19;;;18.46;68.79
57779;BME280;43608;49.486;9.640;2023-07-13T00:05:59;98558.59;;;18.45;68.72
57779;BME280;43608;49.486;9.640;2023-07-13T00:06:29;98531.63;;;18.24;68.36
57779;BME280;43608;49.486;9.640;2023-07-13T00:07:02;98534.09;;;18.30;68.72
57779;BME280;43608;49.486;9.640;2023-07-13T00:07:34;98558.78;;;18.40;68.53
57779;BME280;43608;49.486;9.640;2023-07-13T00:08:05;98531.56;;;18.26;68.61
57779;BME280;43608;49.486;9.640;2023-07-13T00:08:35;98545.53;;;18.36;68.51
57779;BME280;43608;49.486;9.640;2023-07-13T00:09:06;98532.53;;;18.25;68.56
57779;BME280;43608;49.486;9.640;2023-07-13T00:09:36;98552.75;;;18.33;68.52
57779;BME280;43608;49.486;9.640;2023-07-13T00:10:08;98546.59;;;18.31;68.61
57779;BME280;43608;49.486;9.640;2023-07-13T00:10:40;98550.19;;;18.30;68.57
57779;BME280;43608;49.486;9.640;2023-07-13T00:11:11;98546.75;;;18.27;68.71
57779;BME280;43608;49.486;9.640;2023-07-13T00:11:42;98535.31;;;18.22;68.59
57779;BME280;43608;49.486;9.640;2023-07-13T00:12:33;98546.16;;;18.19;68.67
57779;BME280;43608;49.486;9.640;2023-07-13T00:13:04;98543.56;;;18.17;68.67
57779;BME280;43608;49.486;9.640;2023-07-13T00:13:34;98552.34;;;18.21;68.66
57779;BME280;43608;49.486;9.640;2023-07-13T00:14:05;98564.94;;;18.19;68.22
57779;BME280;43608;49.486;9.640;2023-07-13T00:14:35;98556.06;;;18.16;68.66
57779;BME280;43608;49.486;9.640;2023-07-13T00:15:11;98564.13;;;18.16;68.89
57779;BME280;43608;49.486;9.640;2023-07-13T00:15:42;98559.88;;;18.11;68.96
57779;BME280;43608;49.486;9.640;2023-07-13T00:16:13;98558.00;;;18.13;68.89
57779;BME280;43608;49.486;9.640;2023-07-13T00:16:44;98566.09;;;18.11;69.08
57779;BME280;43608;49.486;9.640;2023-07-13T00:17:14;98567.03;;;18.10;68.99
57779;BME280;43608;49.486;9.640;2023-07-13T00:17:44;98540.72;;;17.96;68.96
57779;BME280;43608;49.486;9.640;2023-07-13T00:18:15;98556.41;;;18.07;68.92
57779;BME280;43608;49.486;9.640;2023-07-13T00:18:46;98556.53;;;18.04;69.18
57779;BME280;43608;49.486;9.640;2023-07-13T00:19:17;98554.78;;;18.03;69.11
57779;BME280;43608;49.486;9.640;2023-07-13T00:19:47;98546.19;;;17.93;69.46
57779;BME280;43608;49.486;9.640;2023-07-13T00:20:19;98565.56;;;18.02;69.45
57779;BME280;43608;49.486;9.640;2023-07-13T00:20:52;98540.13;;;17.88;69.43
57779;BME280;43608;49.486;9.640;2023-07-13T00:21:22;98564.78;;;17.98;69.48
57779;BME280;43608;49.486;9.640;2023-07-13T00:21:52;98544.47;;;17.91;69.94
57779;BME280;43608;49.486;9.640;2023-07-13T00:22:25;98552.31;;;17.97;69.67
57779;BME280;43608;49.486;9.640;2023-07-13T00:22:57;98550.69;;;17.93;69.75
57779;BME280;43608;49.486;9.640;2023-07-13T00:23:27;98554.25;;;17.92;69.89
57779;BME280;43608;49.486;9.640;2023-07-13T00:23:58;98560.47;;;17.94;70.23
57779;BME280;43608;49.486;9.640;2023-07-13T00:24:28;98550.69;;;17.93;69.74
57779;BME280;43608;49.486;9.640;2023-07-13T00:24:59;98537.59;;;17.83;69.76
57779;BME280;43608;49.486;9.640;2023-07-13T00:25:29;98557.91;;;17.89;69.74
57779;BME280;43608;49.486;9.640;2023-07-13T00:26:01;98558.75;;;17.91;69.76
57779;BME280;43608;49.486;9.640;2023-07-13T00:26:32;98547.38;;;17.84;69.74
57779;BME280;43608;49.486;9.640;2023-07-13T00:27:04;98541.38;;;17.78;69.71
57779;BME280;43608;49.486;9.640;2023-07-13T00:27:34;98544.06;;;17.78;69.89
57779;BME280;43608;49.486;9.640;2023-07-13T00:28:04;98548.53;;;17.77;69.92
57779;BME280;43608;49.486;9.640;2023-07-13T00:28:35;98564.38;;;17.83;69.78
57779;BME280;43608;49.486;9.640;2023-07-13T00:29:05;98563.53;;;17.83;70.22
57779;BME280;43608;49.486;9.640;2023-07-13T00:29:39;98559.16;;;17.80;70.07
57779;BME280;43608;49.486;9.640;2023-07-13T00:30:10;98568.06;;;17.81;70.34
57779;BME280;43608;49.486;9.640;2023-07-13T00:30:40;98559.25;;;17.77;70.32
57779;BME280;43608;49.486;9.640;2023-07-13T00:31:12;98556.50;;;17.79;70.49
57779;BME280;43608;49.486;9.640;2023-07-13T00:31:44;98563.75;;;17.77;70.58
57779;BME280;43608;49.486;9.640;2023-07-13T00:32:14;98565.53;;;17.76;70.65
57779;BME280;43608;49.486;9.640;2023-07-13T00:32:45;98539.25;;;17.61;70.77
57779;BME280;43608;49.486;9.640;2023-07-13T00:33:15;98552.38;;;17.70;70.74
57779;BME280;43608;49.486;9.640;2023-07-13T00:33:46;98540.97;;;17.63;70.82
57779;BME280;43608;49.486;9.640;2023-07-13T00:34:16;98558.53;;;17.72;70.83
57779;BME280;43608;49.486;9.640;2023-07-13T00:34:47;98540.16;;;17.61;70.59
57779;BME280;43608;49.486;9.640;2023-07-13T00:35:17;98547.16;;;17.65;70.37
57779;BME280;43608;49.486;9.640;2023-07-13T00:35:47;98512.13;;;17.45;70.95
57779;BME280;43608;49.486;9.640;2023-07-13T00:36:19;98547.94;;;17.69;71.07
57779;BME280;43608;49.486;9.640;2023-07-13T00:36:50;98533.97;;;17.59;70.96
57779;BME280;43608;49.486;9.640;2023-07-13T00:37:20;98540.09;;;17.63;71.10
57779;BME280;43608;49.486;9.640;2023-07-13T00:37:51;98539.31;;;17.59;71.12
57779;BME280;43608;49.486;9.640;2023-07-13T00:38:22;98542.84;;;17.61;71.16
57779;BME280;43608;49.486;9.640;2023-07-13T00:38:53;98528.00;;;17.51;71.20
57779;BME280;43608;49.486;9.640;2023-07-13T00:39:23;98540.28;;;17.58;70.96
57779;BME280;43608;49.486;9.640;2023-07-13T00:39:54;98531.72;;;17.47;71.06
57779;BME280;43608;49.486;9.640;2023-07-13T00:40:25;98517.56;;;17.43;70.90
57779;BME280;43608;49.486;9.640;2023-07-13T00:40:55;98538.66;;;17.53;70.77
57779;BME280;43608;49.486;9.640;2023-07-13T00:41:26;98535.94;;;17.54;70.82
57779;BME280;43608;49.486;9.640;2023-07-13T00:41:56;98522.06;;;17.43;70.92
57779;BME280;43608;49.486;9.640;2023-07-13T00:42:27;98522.13;;;17.40;70.75
57779;BME280;43608;49.486;9.640;2023-07-13T00:42:59;98541.41;;;17.51;70.76
57779;BME280;43608;49.486;9.640;2023-07-13T00:43:30;98517.75;;;17.37;70.73
57779;BME280;43608;49.486;9.640;2023-07-13T00:44:00;98518.75;;;17.34;70.92
57779;BME280;43608;49.486;9.640;2023-07-13T00:44:31;98539.81;;;17.45;70.85
57779;BME280;43608;49.486;9.640;2023-07-13T00:46:15;98533.75;;;17.40;70.94
57779;BME280;43608;49.486;9.640;2023-07-13T00:46:46;98522.53;;;17.29;71.06
57779;BME280;43608;49.486;9.640;2023-07-13T00:47:16;98532.19;;;17.33;71.01
57779;BME280;43608;49.486;9.640;2023-07-13T00:47:47;98527.81;;;17.30;71.05
57779;BME280;43608;49.486;9.640;2023-07-13T00:48:20;98533.19;;;17.30;70.99
57779;BME280;43608;49.486;9.640;2023-07-13T00:48:51;98542.00;;;17.34;71.17
57779;BME280;43608;49.486;9.640;2023-07-13T00:49:25;98535.97;;;17.27;71.34
57779;BME280;43608;49.486;9.640;2023-07-13T00:49:55;98523.69;;;17.20;70.98
57779;BME280;43608;49.486;9.640;2023-07-13T00:50:26;98529.13;;;17.18;71.18
57779;BME280;43608;49.486;9.640;2023-07-13T00:50:58;98545.75;;;17.28;71.05
57779;BME280;43608;49.486;9.640;2023-07-13T00:51:45;98531.69;;;17.22;71.05
57779;BME280;43608;49.486;9.640;2023-07-13T00:52:17;98539.88;;;17.17;71.20
57779;BME280;43608;49.486;9.640;2023-07-13T00:52:51;98549.50;;;17.23;71.19
57779;BME280;43608;49.486;9.640;2023-07-13T00:53:25;98529.44;;;17.09;71.38
57779;BME280;43608;49.486;9.640;2023-07-13T00:53:59;98530.34;;;17.08;71.05
57779;BME280;43608;49.486;9.640;2023-07-13T00:54:33;98546.28;;;17.13;71.24
57779;BME280;43608;49.486;9.640;2023-07-13T00:55:06;98553.41;;;17.12;71.08
57779;BME280;43608;49.486;9.640;2023-07-13T00:55:37;98551.56;;;17.14;71.23
57779;BME280;43608;49.486;9.640;2023-07-13T00:56:08;98534.06;;;17.04;71.13
57779;BME280;43608;49.486;9.640;2023-07-13T00:56:41;98544.72;;;17.06;70.95
57779;BME280;43608;49.486;9.640;2023-07-13T00:57:17;98551.81;;;17.07;70.94
57779;BME280;43608;49.486;9.640;2023-07-13T00:57:49;98545.75;;;17.01;70.98
57779;BME280;43608;49.486;9.640;2023-07-13T00:58:19;98534.31;;;16.96;71.09
57779;BME280;43608;49.486;9.640;2023-07-13T00:58:50;98556.28;;;17.06;71.08
57779;BME280;43608;49.486;9.640;2023-07-13T00:59:21;98554.56;;;17.05;71.13
57779;BME280;43608;49.486;9.640;2023-07-13T00:59:56;98551.91;;;17.04;71.04
57779;BME280;43608;49.486;9.640;2023-07-13T01:00:29;98552.06;;;16.99;71.06
57779;BME280;43608;49.486;9.640;2023-07-13T01:01:00;98533.53;;;16.93;70.90
57779;BME280;43608;49.486;9.640;2023-07-13T01:01:30;98537.97;;;16.94;70.83
57779;BME280;43608;49.486;9.640;2023-07-13T01:02:01;98551.16;;;17.00;70.73
57779;BME280;43608;49.486;9.640;2023-07-13T01:02:33;98551.16;;;17.00;70.84
57779;BME280;43608;49.486;9.640;2023-07-13T01:03:04;98530.09;;;16.88;70.89
57779;BME280;43608;49.486;9.640;2023-07-13T01:03:35;98555.72;;;16.96;70.93
57779;BME280;43608;49.486;9.640;2023-07-13T01:04:06;98537.19;;;16.89;71.09
57779;BME280;43608;49.486;9.640;2023-07-13T01:04:38;98549.59;;;16.93;71.18
57779;BME280;43608;49.486;9.640;2023-07-13T01:05:13;98540.84;;;16.86;71.19
57779;BME280;43608;49.486;9.640;2023-07-13T01:05:47;98530.44;;;16.77;71.27
57779;BME280;43608;49.486;9.640;2023-07-13T01:06:18;98548.03;;;16.85;71.26
57779;BME280;43608;49.486;9.640;2023-07-13T01:06:48;98534.91;;;16.76;71.39
57779;BME280;43608;49.486;9.640;2023-07-13T01:07:19;98558.72;;;16.85;71.43
57779;BME280;43608;49.486;9.640;2023-07-13T01:07:50;98531.56;;;16.69;71.56
57779;BME280;43608;49.486;9.640;2023-07-13T01:08:22;98549.06;;;16.80;71.60
57779;BME280;43608;49.486;9.640;2023-07-13T01:08:52;98566.78;;;16.84;71.67
57779;BME280;43608;49.486;9.640;2023-07-13T01:09:23;98539.56;;;16.71;71.74
57779;BME280;43608;49.486;9.640;2023-07-13T01:09:54;98548.28;;;16.76;71.78
57779;BME280;43608;49.486;9.640;2023-07-13T01:10:25;98533.50;;;16.64;71.65
57779;BME280;43608;49.486;9.640;2023-07-13T01:10:57;98559.78;;;16.80;71.84
57779;BME280;43608;49.486;9.640;2023-07-13T01:11:28;98546.75;;;16.69;72.19
57779;BME280;43608;49.486;9.640;2023-07-13T01:11:58;98555.50;;;16.74;71.85
57779;BME280;43608;49.486;9.640;2023-07-13T01:12:29;98563.44;;;16.77;71.76
57779;BME280;43608;49.486;9.640;2023-07-13T01:13:01;98553.69;;;16.75;72.28
57779;BME280;43608;49.486;9.640;2023-07-13T01:13:32;98561.78;;;16.73;72.36
57779;BME280;43608;49.486;9.640;2023-07-13T01:14:03;98558.31;;;16.69;72.14
57779;BME280;43608;49.486;9.640;2023-07-13T01:14:33;98543.47;;;16.59;72.25
57779;BME280;43608;49.486;9.640;2023-07-13T01:15:05;98566.31;;;16.71;72.36
57779;BME280;43608;49.486;9.640;2023-07-13T01:15:45;98568.09;;;16.71;72.22
57779;BME280;43608;49.486;9.640;2023-07-13T01:16:25;98568.16;;;16.69;72.05
57779;BME280;43608;49.486;9.640;2023-07-13T01:16:57;98550.75;;;16.54;72.03
57779;BME280;43608;49.486;9.640;2023-07-13T01:17:30;98562.97;;;16.63;71.93
57779;BME280;43608;49.486;9.640;2023-07-13T01:18:02;98556.94;;;16.56;71.86
57779;BME280;43608;49.486;9.640;2023-07-13T01:18:32;98542.09;;;16.46;72.61
57779;BME280;43608;49.486;9.640;2023-07-13T01:19:07;98565.72;;;16.61;71.86
57779;BME280;43608;49.486;9.640;2023-07-13T01:19:44;98565.75;;;16.60;71.76
57779;BME280;43608;49.486;9.640;2023-07-13T01:20:15;98575.63;;;16.58;71.77
57779;BME280;43608;49.486;9.640;2023-07-13T01:20:51;98576.53;;;16.57;71.62
57779;BME280;43608;49.486;9.640;2023-07-13T01:21:21;98570.44;;;16.53;71.40
57779;BME280;43608;49.486;9.640;2023-07-13T01:21:52;98573.06;;;16.55;71.23
57779;BME280;43608;49.486;9.640;2023-07-13T01:22:23;98548.47;;;16.42;71.04
57779;BME280;43608;49.486;9.640;2023-07-13T01:22:57;98564.19;;;16.52;70.68
57779;BME280;43608;49.486;9.640;2023-07-13T01:23:28;98565.25;;;16.47;71.00
57779;BME280;43608;49.486;9.640;2023-07-13T01:23:59;98558.19;;;16.44;70.85
57779;BME280;43608;49.486;9.640;2023-07-13T01:24:29;98563.38;;;16.50;70.61
57779;BME280;43608;49.486;9.640;2023-07-13T01:25:01;98545.06;;;16.37;70.64
57779;BME280;43608;49.486;9.640;2023-07-13T01:25:31;98554.72;;;16.41;70.58
57779;BME280;43608;49.486;9.640;2023-07-13T01:26:02;98571.47;;;16.47;70.46
57779;BME280;43608;49.486;9.640;2023-07-13T01:26:32;98561.91;;;16.40;70.53
57779;BME280;43608;49.486;9.640;2023-07-13T01:27:04;98555.81;;;16.35;70.69
57779;BME280;43608;49.486;9.640;2023-07-13T01:27:36;98554.00;;;16.35;70.70
57779;BME280;43608;49.486;9.640;2023-07-13T01:28:07;98552.34;;;16.31;70.55
57779;BME280;43608;49.486;9.640;2023-07-13T01:28:38;98576.97;;;16.43;70.62
57779;BME280;43608;49.486;9.640;2023-07-13T01:29:09;98574.44;;;16.38;70.93
57779;BME280;43608;49.486;9.640;2023-07-13T01:29:41;98570.72;;;16.42;70.86
57779;BME280;43608;49.486;9.640;2023-07-13T01:30:16;98540.97;;;16.25;70.75
57779;BME280;43608;49.486;9.640;2023-07-13T01:30:47;98571.69;;;16.41;70.85
57779;BME280;43608;49.486;9.640;2023-07-13T01:31:17;98562.81;;;16.39;71.09
57779;BME280;43608;49.486;9.640;2023-07-13T01:31:48;98558.53;;;16.33;71.14
57779;BME280;43608;49.486;9.640;2023-07-13T01:32:21;98560.38;;;16.31;71.17
57779;BME280;43608;49.486;9.640;2023-07-13T01:32:54;98565.53;;;16.38;71.13
57779;BME280;43608;49.486;9.640;2023-07-13T01:33:25;98564.63;;;16.37;71.23
57779;BME280;43608;49.486;9.640;2023-07-13T01:33:55;98559.56;;;16.28;70.96
57779;BME280;43608;49.486;9.640;2023-07-13T01:34:27;98554.31;;;16.25;71.42
57779;BME280;43608;49.486;9.640;2023-07-13T01:34:58;98570.09;;;16.34;71.33
57779;BME280;43608;49.486;9.640;2023-07-13T01:35:28;98570.16;;;16.32;71.17
57779;BME280;43608;49.486;9.640;2023-07-13T01:35:58;98565.75;;;16.30;71.40
57779;BME280;43608;49.486;9.640;2023-07-13T01:36:29;98576.31;;;16.34;71.12
57779;BME280;43608;49.486;9.640;2023-07-13T01:36:59;98572.81;;;16.32;71.21
57779;BME280;43608;49.486;9.640;2023-07-13T01:37:29;98551.81;;;16.18;70.98
57779;BME280;43608;49.486;9.640;2023-07-13T01:38:04;98576.34;;;16.33;70.92
57779;BME280;43608;49.486;9.640;2023-07-13T01:38:36;98565.94;;;16.24;70.79
57779;BME280;43608;49.486;9.640;2023-07-13T01:39:06;98577.28;;;16.32;70.95
57779;BME280;43608;49.486;9.640;2023-07-13T01:39:37;98570.38;;;16.25;70.73
57779;BME280;43608;49.486;9.640;2023-07-13T01:40:08;98559.78;;;16.20;70.71
57779;BME280;43608;49.486;9.640;2023-07-13T01:40:39;98563.38;;;16.19;70.63
57779;BME280;43608;49.486;9.640;2023-07-13T01:41:09;98577.53;;;16.23;70.60
57779;BME280;43608;49.486;9.640;2023-07-13T01:41:39;98538.84;;;16.05;70.56
57779;BME280;43608;49.486;9.640;2023-07-13T01:42:10;98585.50;;;16.24;70.73
57779;BME280;43608;49.486;9.640;2023-07-13T01:42:40;98578.44;;;16.23;70.87
57779;BME280;43608;49.486;9.640;2023-07-13T01:43:11;98565.28;;;16.15;70.69
57779;BME280;43608;49.486;9.640;2023-07-13T01:43:41;98582.09;;;16.19;70.60
57779;BME280;43608;49.486;9.640;2023-07-13T01:44:12;98572.53;;;16.12;70.51
57779;BME280;43608;49.486;9.640;2023-07-13T01:44:42;98576.00;;;16.14;70.39
57779;BME280;43608;49.486;9.640;2023-07-13T01:45:13;98550.59;;;15.99;70.50
57779;BME280;43608;49.486;9.640;2023-07-13T01:45:44;98576.09;;;16.11;70.31
57779;BME280;43608;49.486;9.640;2023-07-13T01:46:14;98573.44;;;16.11;70.44
57779;BME280;43608;49.486;9.640;2023-07-13T01:46:45;98560.44;;;15.98;70.48
57779;BME280;43608;49.486;9.640;2023-07-13T01:47:16;98574.50;;;16.05;70.65
57779;BME280;43608;49.486;9.640;2023-07-13T01:47:46;98578.88;;;16.08;70.78
57779;BME280;43608;49.486;9.640;2023-07-13T01:48:16;98564.03;;;15.97;70.74
57779;BME280;43608;49.486;9.640;2023-07-13T01:48:47;98572.84;;;15.99;70.85
57779;BME280;43608;49.486;9.640;2023-07-13T01:49:17;98573.75;;;16.00;70.89
57779;BME280;43608;49.486;9.640;2023-07-13T01:49:48;98573.81;;;15.97;70.92
57779;BME280;43608;49.486;9.640;2023-07-13T01:50:18;98574.72;;;15.97;71.01
57779;BME280;43608;49.486;9.640;2023-07-13T01:50:48;98573.88;;;15.95;71.22
57779;BME280;43608;49.486;9.640;2023-07-13T01:51:19;98558.94;;;15.86;71.42
57779;BME280;43608;49.486;9.640;2023-07-13T01:51:50;98549.38;;;15.78;71.94
57779;BME280;43608;49.486;9.640;2023-07-13T01:52:21;98574.97;;;15.88;71.73
57779;BME280;43608;49.486;9.640;2023-07-13T01:52:51;98582.84;;;15.93;72.00
57779;BME280;43608;49.486;9.640;2023-07-13T01:53:22;98575.78;;;15.90;72.21
57779;BME280;43608;49.486;9.640;2023-07-13T01:53:52;98569.69;;;15.85;72.49
57779;BME280;43608;49.486;9.640;2023-07-13T01:54:23;98589.19;;;15.89;72.66
57779;BME280;43608;49.486;9.640;2023-07-13T01:54:53;98577.72;;;15.85;72.82
57779;BME280;43608;49.486;9.640;2023-07-13T01:55:24;98584.75;;;15.88;72.82
57779;BME280;43608;49.486;9.640;2023-07-13T01:55:54;98568.16;;;15.75;73.00
57779;BME280;43608;49.486;9.640;2023-07-13T01:56:24;98586.63;;;15.85;72.82
57779;BME280;43608;49.486;9.640;2023-07-13T01:56:55;98575.22;;;15.77;72.78
57779;BME280;43608;49.486;9.640;2023-07-13T01:57:25;98580.53;;;15.79;72.83
57779;BME280;43608;49.486;9.640;2023-07-13T01:57:56;98578.81;;;15.76;72.78
57779;BME280;43608;49.486;9.640;2023-07-13T01:58:26;98564.78;;;15.68;72.88
57779;BME280;43608;49.486;9.640;2023-07-13T01:58:56;98551.72;;;15.57;72.85
57779;BME280;43608;49.486;9.640;2023-07-13T01:59:27;98588.56;;;15.77;72.52
57779;BME280;43608;49.486;9.640;2023-07-13T01:59:57;98560.47;;;15.62;73.10
57779;BME280;43608;49.486;9.640;2023-07-13T02:00:28;98578.97;;;15.70;73.37
57779;BME280;43608;49.486;9.640;2023-07-13T02:00:58;98552.78;;;15.51;73.42
57779;BME280;43608;49.486;9.640;2023-07-13T02:01:29;98581.84;;;15.62;73.53
57779;BME280;43608;49.486;9.640;2023-07-13T02:01:59;98558.16;;;15.48;73.49
57779;BME280;43608;49.486;9.640;2023-07-13T02:02:30;98580.16;;;15.60;73.56
57779;BME280;43608;49.486;9.640;2023-07-13T02:03:00;98589.94;;;15.59;73.66
57779;BME280;43608;49.486;9.640;2023-07-13T02:03:30;98584.69;;;15.56;73.77
57779;BME280;43608;49.486;9.640;2023-07-13T02:04:02;98578.59;;;15.51;73.92
57779;BME280;43608;49.486;9.640;2023-07-13T02:04:33;98587.44;;;15.53;73.76
57779;BME280;43608;49.486;9.640;2023-07-13T02:05:03;98566.47;;;15.38;73.99
57779;BME280;43608;49.486;9.640;2023-07-13T02:05:34;98587.56;;;15.48;74.01
57779;BME280;43608;49.486;9.640;2023-07-13T02:06:04;98590.22;;;15.48;74.13
57779;BME280;43608;49.486;9.640;2023-07-13T02:06:35;98590.25;;;15.47;73.91
57779;BME280;43608;49.486;9.640;2023-07-13T02:07:05;98595.66;;;15.45;73.88
57779;BME280;43608;49.486;9.640;2023-07-13T02:07:35;98586.88;;;15.40;74.15
57779;BME280;43608;49.486;9.640;2023-07-13T02:08:06;98520.28;;;14.98;74.25
57779;BME280;43608;49.486;9.640;2023-07-13T02:08:37;98590.41;;;15.41;74.31
57779;BME280;43608;49.486;9.640;2023-07-13T02:09:07;98584.31;;;15.35;74.21
57779;BME280;43608;49.486;9.640;2023-07-13T02:09:38;98586.06;;;15.36;74.17
57779;BME280;43608;49.486;9.640;2023-07-13T02:10:09;98592.28;;;15.37;74.16
57779;BME280;43608;49.486;9.640;2023-07-13T02:10:39;98575.72;;;15.24;74.00
57779;BME280;43608;49.486;9.640;2023-07-13T02:11:10;98584.47;;;15.29;74.10
57779;BME280;43608;49.486;9.640;2023-07-13T02:11:40;98594.19;;;15.32;74.10
57779;BME280;43608;49.486;9.640;2023-07-13T02:12:11;98593.38;;;15.30;73.91
57779;BME280;43608;49.486;9.640;2023-07-13T02:12:42;98589.78;;;15.31;74.04
57779;BME280;43608;49.486;9.640;2023-07-13T02:13:12;98605.72;;;15.34;73.96
57779;BME280;43608;49.486;9.640;2023-07-13T02:13:42;98602.19;;;15.33;73.84
57779;BME280;43608;49.486;9.640;2023-07-13T02:14:13;98594.28;;;15.29;74.02
57779;BME280;43608;49.486;9.640;2023-07-13T02:14:45;98592.59;;;15.25;74.18
57779;BME280;43608;49.486;9.640;2023-07-13T02:15:16;98581.19;;;15.18;74.03
57779;BME280;43608;49.486;9.640;2023-07-13T02:15:50;98582.91;;;15.20;73.99
57779;BME280;43608;49.486;9.640;2023-07-13T02:16:20;98599.56;;;15.30;73.85
57779;BME280;43608;49.486;9.640;2023-07-13T02:16:50;98598.66;;;15.31;73.81
57779;BME280;43608;49.486;9.640;2023-07-13T02:17:21;98546.97;;;14.98;73.83
57779;BME280;43608;49.486;9.640;2023-07-13T02:17:51;98579.41;;;15.18;73.54
57779;BME280;43608;49.486;9.640;2023-07-13T02:18:22;98583.75;;;15.23;73.43
57779;BME280;43608;49.486;9.640;2023-07-13T02:18:52;98597.78;;;15.31;73.27
57779;BME280;43608;49.486;9.640;2023-07-13T02:19:23;98575.06;;;15.14;73.22
57779;BME280;43608;49.486;9.640;2023-07-13T02:19:53;98589.94;;;15.25;73.35
57779;BME280;43608;49.486;9.640;2023-07-13T02:20:25;98604.03;;;15.30;73.41
57779;BME280;43608;49.486;9.640;2023-07-13T02:20:56;98570.66;;;15.12;73.37
57779;BME280;43608;49.486;9.640;2023-07-13T02:21:26;98581.19;;;15.18;73.59
57779;BME280;43608;49.486;9.640;2023-07-13T02:21:57;98597.84;;;15.28;73.80
57779;BME280;43608;49.486;9.640;2023-07-13T02:22:27;98602.28;;;15.29;73.86
57779;BME280;43608;49.486;9.640;2023-07-13T02:22:57;98595.19;;;15.28;73.96
57779;BME280;43608;49.486;9.640;2023-07-13T02:23:28;98582.06;;;15.18;73.91
57779;BME280;43608;49.486;9.640;2023-07-13T02:23:58;98585.66;;;15.17;73.89
57779;BME280;43608;49.486;9.640;2023-07-13T02:24:30;98603.13;;;15.31;74.11
57779;BME280;43608;49.486;9.640;2023-07-13T02:25:00;98609.34;;;15.31;74.10
57779;BME280;43608;49.486;9.640;2023-07-13T02:25:31;98607.53;;;15.32;74.42
57779;BME280;43608;49.486;9.640;2023-07-13T02:26:03;98611.09;;;15.32;73.82
57779;BME280;43608;49.486;9.640;2023-07-13T02:26:34;98604.03;;;15.30;74.12
57779;BME280;43608;49.486;9.640;2023-07-13T02:27:04;98608.50;;;15.29;74.07
57779;BME280;43608;49.486;9.640;2023-07-13T02:27:35;98588.25;;;15.20;74.26
57779;BME280;43608;49.486;9.640;2023-07-13T02:28:05;98605.88;;;15.28;74.41
57779;BME280;43608;49.486;9.640;2023-07-13T02:28:35;98610.28;;;15.29;74.41
57779;BME280;43608;49.486;9.640;2023-07-13T02:29:06;98605.91;;;15.26;74.29
57779;BME280;43608;49.486;9.640;2023-07-13T02:29:36;98598.81;;;15.25;74.40
57779;BME280;43608;49.486;9.640;2023-07-13T02:30:07;98586.59;;;15.15;74.17
57779;BME280;43608;49.486;9.640;2023-07-13T02:30:38;98585.66;;;15.17;74.20
57779;BME280;43608;49.486;9.640;2023-07-13T02:31:11;98604.09;;;15.28;74.53
57779;BME280;43608;49.486;9.640;2023-07-13T02:31:42;98583.91;;;15.16;74.04
57779;BME280;43608;49.486;9.640;2023-07-13T02:32:13;98593.50;;;15.24;73.98
57779;BME280;43608;49.486;9.640;2023-07-13T02:32:43;98584.81;;;15.15;74.20
57779;BME280;43608;49.486;9.640;2023-07-13T02:33:14;98610.34;;;15.27;74.13
57779;BME280;43608;49.486;9.640;2023-07-13T02:33:45;98601.53;;;15.24;74.25
57779;BME280;43608;49.486;9.640;2023-07-13T02:34:16;98589.25;;;15.15;74.15
57779;BME280;43608;49.486;9.640;2023-07-13T02:34:46;98616.63;;;15.25;74.11
57779;BME280;43608;49.486;9.640;2023-07-13T02:35:16;98601.53;;;15.24;74.12
57779;BME280;43608;49.486;9.640;2023-07-13T02:35:47;98600.78;;;15.17;74.15
57779;BME280;43608;49.486;9.640;2023-07-13T02:36:18;98607.81;;;15.21;73.92
57779;BME280;43608;49.486;9.640;2023-07-13T02:36:50;98611.34;;;15.23;74.00
57779;BME280;43608;49.486;9.640;2023-07-13T02:37:20;98607.91;;;15.18;74.08
57779;BME280;43608;49.486;9.640;2023-07-13T02:37:51;98618.50;;;15.21;73.90
57779;BME280;43608;49.486;9.640;2023-07-13T02:38:22;98609.75;;;15.14;73.94
57779;BME280;43608;49.486;9.640;2023-07-13T02:38:52;98607.09;;;15.14;73.77
57779;BME280;43608;49.486;9.640;2023-07-13T02:39:23;98608.94;;;15.11;73.78
57779;BME280;43608;49.486;9.640;2023-07-13T02:39:53;98626.59;;;15.18;73.91
57779;BME280;43608;49.486;9.640;2023-07-13T02:40:24;98619.47;;;15.17;73.88
57779;BME280;43608;49.486;9.640;2023-07-13T02:40:54;98615.09;;;15.14;73.80
57779;BME280;43608;49.486;9.640;2023-07-13T02:41:25;98613.41;;;15.10;73.71
57779;BME280;43608;49.486;9.640;2023-07-13T02:41:55;98605.56;;;15.04;73.70
57779;BME280;43608;49.486;9.640;2023-07-13T02:42:25;98602.94;;;15.02;73.95
57779;BME280;43608;49.486;9.640;2023-07-13T02:42:56;98606.50;;;15.01;73.76
57779;BME280;43608;49.486;9.640;2023-07-13T02:43:26;98615.31;;;15.05;73.95
57779;BME280;43608;49.486;9.640;2023-07-13T02:44:01;98596.00;;;14.94;73.87
57779;BME280;43608;49.486;9.640;2023-07-13T02:44:34;98604.91;;;14.94;73.85
57779;BME280;43608;49.486;9.640;2023-07-13T02:45:06;98620.75;;;15.00;73.95
57779;BME280;43608;49.486;9.640;2023-07-13T02:45:37;98613.81;;;14.93;73.78
57779;BME280;43608;49.486;9.640;2023-07-13T02:46:09;98612.97;;;14.91;73.92
57779;BME280;43608;49.486;9.640;2023-07-13T02:46:39;98600.69;;;14.82;73.99